Time;durP1;ratioP1;P1;durP2;ratioP2;P2;SDS_P1;SDS_P2;PMS_P1;PMS_P2;Temp;Humidity;BMP_temperature;BMP_pressure;BME280_temperature;BME280_humidity;BME280_pressure;Samples;Min_cycle;Max_cycle;Signal;HPM_P1;HPM_P2
2021/07/10 00:01:28;;;;;;;;;;;;;;;25.63;44.59;100805.31;4977183;28;20041;-80
2021/07/10 00:04:13;;;;;;;3.00;0.60;;;;;;;25.61;44.55;100802.94;4974513;28;19918;-80
2021/07/10 00:06:59;;;;;;;1.75;0.60;;;;;;;25.59;44.58;100804.56;4973229;28;20412;-80
2021/07/10 00:09:44;;;;;;;4.07;0.70;;;;;;;25.57;44.11;100802.19;4976610;28;20050;-80
2021/07/10 00:12:28;;;;;;;;;;;;;;;25.58;44.36;100805.75;4973743;28;20050;-77
2021/07/10 00:15:15;;;;;;;;;;;;;;;25.54;44.22;100787.06;4976280;28;19914;-77
2021/07/10 00:18:02;;;;;;;4.22;0.70;;;;;;;25.53;44.59;100793.06;4972805;28;19914;-79
2021/07/10 00:20:49;;;;;;;1.25;0.50;;;;;;;25.51;44.75;100789.88;4973956;28;20416;-78
2021/07/10 00:23:35;;;;;;;7.88;0.60;;;;;;;25.49;44.74;100784.75;4976973;28;20531;-77
2021/07/10 00:26:21;;;;;;;4.63;2.10;;;;;;;25.48;44.83;100791.53;4974944;28;20057;-79
2021/07/10 00:29:06;;;;;;;2.50;0.65;;;;;;;25.44;44.63;100790.78;4971842;28;20061;-79
2021/07/10 00:31:51;;;;;;;5.70;0.80;;;;;;;25.44;44.41;100784.41;4976052;28;20409;-79
2021/07/10 00:34:36;;;;;;;3.28;1.20;;;;;;;25.44;44.42;100790.78;4975022;28;20058;-79
2021/07/10 00:37:21;;;;;;;3.47;1.02;;;;;;;25.42;44.52;100782.03;4973470;28;20050;-79
2021/07/10 00:40:08;;;;;;;1.98;0.90;;;;;;;25.38;44.29;100775.72;4976977;28;20519;-79
2021/07/10 00:42:53;;;;;;;2.50;0.95;;;;;;;25.37;44.85;100781.69;4970181;28;20043;-79
2021/07/10 00:45:38;;;;;;;2.45;0.80;;;;;;;25.33;44.88;100781.75;4972780;28;20525;-79
2021/07/10 00:48:23;;;;;;;3.08;1.13;;;;;;;25.30;45.03;100784.53;4976065;28;20046;-79
2021/07/10 00:51:08;;;;;;;1.77;0.73;;;;;;;25.23;45.09;100787.41;4975892;28;20050;-79
2021/07/10 00:53:53;;;;;;;4.32;1.77;;;;;;;25.15;45.23;100783.91;4974231;28;20046;-79
2021/07/10 00:56:40;;;;;;;2.72;1.23;;;;;;;25.16;45.45;100795.81;4975602;28;20061;-79
2021/07/10 00:59:27;;;;;;;1.88;0.95;;;;;;;25.13;45.68;100792.69;4972622;28;20507;-78
2021/07/10 01:02:12;;;;;;;5.97;1.00;;;;;;;25.12;45.80;100791.09;4972128;28;20049;-78
2021/07/10 01:04:57;;;;;;;1.90;0.82;;;;;;;25.09;45.71;100782.78;4975449;28;20535;-79
2021/07/10 01:07:42;;;;;;;3.78;0.65;;;;;;;25.14;45.87;100793.47;4974740;28;20123;-79
2021/07/10 01:10:26;;;;;;;;;;;;;;;25.13;46.00;100789.91;4971708;28;20373;-78
2021/07/10 01:13:11;;;;;;;2.00;0.88;;;;;;;25.11;46.22;100788.72;4974625;28;19926;-78
2021/07/10 01:15:57;;;;;;;3.38;0.70;;;;;;;25.08;46.83;100779.22;4972666;28;20046;-79
2021/07/10 01:18:41;;;;;;;4.43;0.60;;;;;;;25.06;46.46;100780.81;4972982;28;20050;-78
2021/07/10 01:21:26;;;;;;;;;;;;;;;25.02;46.56;100780.06;4977081;28;20046;-78
2021/07/10 01:24:10;;;;;;;3.93;1.50;;;;;;;24.98;46.16;100780.09;4974492;28;19914;-79
2021/07/10 01:26:55;;;;;;;0.90;0.80;;;;;;;24.88;45.87;100775.44;4970883;28;20046;-79
2021/07/10 01:29:40;;;;;;;3.63;1.27;;;;;;;24.87;46.48;100773.84;4969698;28;20053;-79
2021/07/10 01:32:26;;;;;;;2.22;0.90;;;;;;;24.86;46.74;100772.22;4969285;28;20066;-79
2021/07/10 01:35:11;;;;;;;5.95;0.82;;;;;;;24.87;47.16;100775.81;4967473;28;20046;-78
2021/07/10 01:37:55;;;;;;;3.58;1.23;;;;;;;24.83;47.58;100772.25;4971921;28;20424;-79
2021/07/10 01:40:42;;;;;;;4.38;1.42;;;;;;;24.82;47.79;100776.25;4977917;28;20054;-78
2021/07/10 01:43:27;;;;;;;3.63;1.17;;;;;;;24.82;47.82;100773.47;4977893;28;20057;-78
2021/07/10 01:46:12;;;;;;;8.15;1.10;;;;;;;24.80;47.73;100781.41;4975859;28;20115;-78
2021/07/10 01:48:57;;;;;;;4.80;1.02;;;;;;;24.80;47.93;100784.19;4979255;28;20046;-77
2021/07/10 01:51:42;;;;;;;2.85;1.23;;;;;;;24.79;47.94;100782.63;4979506;28;20049;-79
2021/07/10 01:54:27;;;;;;;5.93;1.38;;;;;;;24.81;48.41;100775.44;4977063;28;20054;-78
2021/07/10 01:57:12;;;;;;;3.28;1.40;;;;;;;24.80;48.22;100773.88;4975176;28;20065;-78
2021/07/10 01:59:58;;;;;;;2.67;1.17;;;;;;;24.77;47.76;100768.34;4980619;28;20054;-77
2021/07/10 02:02:43;;;;;;;6.28;1.40;;;;;;;24.74;48.31;100769.16;4973660;28;20050;-77
2021/07/10 02:05:29;;;;;;;4.40;1.05;;;;;;;24.72;48.36;100769.56;4980215;28;20050;-78
2021/07/10 02:08:15;;;;;;;3.70;1.33;;;;;;;24.68;48.42;100764.06;4974344;28;20058;-77
2021/07/10 02:11:00;;;;;;;4.03;1.13;;;;;;;24.65;48.36;100756.50;4975876;28;20531;-77
2021/07/10 02:13:45;;;;;;;6.18;1.40;;;;;;;24.65;48.31;100759.28;4980091;28;20054;-78
2021/07/10 02:16:30;;;;;;;2.58;0.93;;;;;;;24.63;48.64;100758.13;4989938;28;20050;-78
2021/07/10 02:19:15;;;;;;;3.03;1.20;;;;;;;24.65;48.68;100756.50;4983144;28;20413;-79
2021/07/10 02:22:01;;;;;;;7.63;2.35;;;;;;;24.63;48.62;100750.59;4986964;28;20042;-79
2021/07/10 02:24:46;;;;;;;2.17;0.70;;;;;;;24.63;48.75;100758.13;4980194;28;20065;-78
2021/07/10 02:27:32;;;;;;;2.97;0.85;;;;;;;24.64;48.57;100756.91;4980809;28;20557;-78
2021/07/10 02:30:21;;;;;;;;;;;;;;;24.63;48.79;100758.94;4985127;28;20045;-78
2021/07/10 02:33:06;;;;;;;1.85;0.98;;;;;;;24.61;48.79;100755.75;4983947;28;19925;-78
2021/07/10 02:35:51;;;;;;;4.57;1.42;;;;;;;24.59;48.85;100758.13;4980532;28;20042;-78
2021/07/10 02:38:36;;;;;;;2.13;0.90;;;;;;;24.61;49.02;100766.88;4982489;28;20046;-78
2021/07/10 02:41:20;;;;;;;3.38;1.23;;;;;;;24.58;49.00;100756.56;4981503;28;20050;-78
2021/07/10 02:44:05;;;;;;;10.02;1.85;;;;;;;24.57;49.08;100748.63;4984854;28;20519;-78
2021/07/10 02:46:50;;;;;;;4.63;1.30;;;;;;;24.54;49.04;100743.88;4981804;28;20511;-79
2021/07/10 02:49:34;;;;;;;;;;;;;;;24.55;49.02;100754.59;4979847;28;20519;-78
2021/07/10 02:52:19;;;;;;;4.68;1.27;;;;;;;24.53;49.20;100757.00;4984443;28;20384;-78
2021/07/10 02:55:05;;;;;;;;;;;;;;;24.51;49.21;100762.19;4982557;28;20077;-78
2021/07/10 02:57:50;;;;;;;;;;;;;;;24.53;49.05;100770.13;4978602;28;19921;-79
2021/07/10 03:00:35;;;;;;;3.92;1.50;;;;;;;24.52;48.92;100774.09;4974317;28;20389;-78
2021/07/10 03:03:20;;;;;;;6.90;1.25;;;;;;;24.50;48.99;100768.94;4980147;28;20397;-78
2021/07/10 03:06:05;;;;;;;4.28;1.38;;;;;;;24.49;49.11;100775.69;4978362;28;20058;-78
2021/07/10 03:08:50;;;;;;;8.48;1.75;;;;;;;24.47;49.21;100768.97;4977480;28;20053;-78
2021/07/10 03:11:36;;;;;;;5.38;1.30;;;;;;;24.47;49.43;100772.56;4980054;28;20061;-78
2021/07/10 03:14:21;;;;;;;5.00;1.63;;;;;;;24.43;49.37;100762.66;4976739;28;20054;-77
2021/07/10 03:17:05;;;;;;;3.13;1.30;;;;;;;24.41;49.46;100756.69;4973897;28;20070;-78
2021/07/10 03:19:50;;;;;;;4.90;1.20;;;;;;;24.41;49.65;100760.28;4979975;28;20516;-78
2021/07/10 03:22:36;;;;;;;7.65;2.20;;;;;;;24.41;49.57;100765.84;4975769;28;20539;-78
2021/07/10 03:25:21;;;;;;;4.60;1.20;;;;;;;24.39;49.55;100764.66;4975917;28;20069;-78
2021/07/10 03:28:06;;;;;;;3.13;1.30;;;;;;;24.37;49.69;100767.06;4978860;28;20058;-78
2021/07/10 03:30:52;;;;;;;3.05;1.48;;;;;;;24.34;49.43;100768.66;4978129;28;20054;-78
2021/07/10 03:33:38;;;;;;;2.90;1.23;;;;;;;24.35;49.46;100767.47;4974633;28;20049;-77
2021/07/10 03:36:26;;;;;;;7.32;0.85;;;;;;;24.32;49.69;100771.06;4976613;28;20053;-79
2021/07/10 03:39:10;;;;;;;1.63;0.82;;;;;;;24.32;49.39;100762.72;4970819;28;20061;-78
2021/07/10 03:41:55;;;;;;;4.72;1.00;;;;;;;24.32;49.21;100765.50;4973324;28;20424;-77
2021/07/10 03:44:40;;;;;;;1.73;0.70;;;;;;;24.29;49.01;100761.53;4976860;28;20123;-78
2021/07/10 03:47:26;;;;;;;1.92;1.05;;;;;;;24.27;49.13;100763.97;4973674;28;20070;-78
2021/07/10 03:50:12;;;;;;;1.60;0.88;;;;;;;24.25;49.30;100765.53;4971309;28;20049;-79
2021/07/10 03:52:57;;;;;;;3.05;0.90;;;;;;;24.22;49.29;100764.38;4977613;28;20050;-77
2021/07/10 03:55:42;;;;;;;8.07;0.60;;;;;;;24.22;49.02;100774.72;4976036;28;20053;-78
2021/07/10 03:58:27;;;;;;;3.20;0.60;;;;;;;24.20;49.14;100779.88;4976939;28;20053;-78
2021/07/10 04:01:12;;;;;;;5.57;0.82;;;;;;;24.18;49.20;100771.13;4974210;28;20046;-77
2021/07/10 04:03:56;;;;;;;2.45;0.63;;;;;;;24.16;49.44;100770.75;4976576;28;20448;-77
2021/07/10 04:06:42;;;;;;;2.35;0.82;;;;;;;24.15;49.31;100771.94;4973548;28;20053;-78
2021/07/10 04:09:27;;;;;;;0.77;0.50;;;;;;;24.14;48.84;100775.91;4979030;28;20070;-78
2021/07/10 04:12:12;;;;;;;1.35;0.55;;;;;;;24.12;49.24;100775.53;4974045;28;20135;-78
2021/07/10 04:15:01;;;;;;;2.05;0.80;;;;;;;24.10;49.23;100777.91;4971638;28;20046;-78
2021/07/10 04:17:47;;;;;;;3.75;0.95;;;;;;;24.11;49.00;100787.84;4977801;28;20054;-78
2021/07/10 04:20:32;;;;;;;5.57;0.85;;;;;;;24.09;49.36;100785.47;4970893;28;20049;-77
2021/07/10 04:23:17;;;;;;;4.30;0.80;;;;;;;24.08;49.05;100786.66;4973966;28;20037;-78
2021/07/10 04:26:02;;;;;;;2.42;1.02;;;;;;;24.05;49.10;100781.13;4974395;28;20057;-78
2021/07/10 04:28:48;;;;;;;1.10;0.65;;;;;;;24.03;48.95;100775.16;4977052;28;20049;-78
2021/07/10 04:31:32;;;;;;;3.90;0.70;;;;;;;24.00;49.30;100774.00;4973963;28;20065;-77
2021/07/10 04:34:17;;;;;;;1.88;0.70;;;;;;;24.03;49.16;100789.84;4973837;28;20050;-77
2021/07/10 04:37:03;;;;;;;3.03;0.85;;;;;;;24.01;49.25;100788.69;4972799;28;20066;-77
2021/07/10 04:39:47;;;;;;;2.22;0.70;;;;;;;23.99;49.60;100785.50;4976351;28;20050;-77
2021/07/10 04:42:32;;;;;;;4.63;0.82;;;;;;;23.96;49.28;100787.13;4968781;28;20058;-78
2021/07/10 04:45:18;;;;;;;4.97;1.08;;;;;;;23.97;49.53;100783.16;4974330;28;20564;-77
2021/07/10 04:48:05;;;;;;;6.22;0.80;;;;;;;23.95;49.83;100785.53;4974306;28;20046;-78
2021/07/10 04:50:50;;;;;;;5.03;2.05;;;;;;;23.97;50.08;100785.13;4972964;28;20069;-77
2021/07/10 04:53:34;;;;;;;;;;;;;;;23.96;49.95;100791.88;4971527;28;20428;-78
2021/07/10 04:56:19;;;;;;;3.00;1.07;;;;;;;23.95;49.97;100790.28;4972688;28;19914;-77
2021/07/10 04:59:04;;;;;;;4.50;1.02;;;;;;;23.94;49.86;100791.50;4970075;28;20053;-77
2021/07/10 05:01:49;;;;;;;9.98;1.45;;;;;;;23.94;49.99;100794.25;4975212;28;20046;-78
2021/07/10 05:04:34;;;;;;;4.75;0.70;;;;;;;23.93;50.01;100798.22;4973906;28;20045;-78
2021/07/10 05:07:18;;;;;;;;;;;;;;;23.96;50.12;100800.22;4970091;28;20523;-77
2021/07/10 05:10:05;;;;;;;7.65;1.23;;;;;;;23.92;50.15;100796.66;4977269;28;20387;-78
2021/07/10 05:12:50;;;;;;;4.60;0.95;;;;;;;23.95;50.36;100799.44;4974141;28;20054;-77
2021/07/10 05:15:35;;;;;;;5.45;0.85;;;;;;;23.95;50.40;100795.84;4977734;28;20054;-78
2021/07/10 05:18:20;;;;;;;7.65;2.75;;;;;;;23.95;50.32;100801.41;4984928;28;20073;-78
2021/07/10 05:21:05;;;;;;;3.95;0.90;;;;;;;23.96;50.63;100803.78;4980779;28;20413;-79
2021/07/10 05:23:50;;;;;;;11.13;1.10;;;;;;;23.96;50.70;100803.78;4981721;28;20417;-79
2021/07/10 05:26:35;;;;;;;3.40;1.35;;;;;;;23.96;50.77;100803.00;4979981;28;20516;-79
2021/07/10 05:29:19;;;;;;;4.25;0.77;;;;;;;23.96;50.80;100812.13;4982643;28;20042;-77
2021/07/10 05:32:05;;;;;;;3.83;1.00;;;;;;;23.96;50.73;100808.56;4979756;28;20062;-79
2021/07/10 05:34:52;;;;;;;1.70;0.77;;;;;;;23.97;50.92;100810.16;4981720;28;20054;-84
2021/07/10 05:37:37;;;;;;;6.53;0.68;;;;;;;23.97;50.62;100807.38;4981710;28;20046;-83
2021/07/10 05:40:22;;;;;;;3.20;0.95;;;;;;;23.98;50.89;100811.69;4981029;28;20046;-82
2021/07/10 05:43:09;;;;;;;3.08;1.00;;;;;;;23.99;50.37;100816.88;4982669;28;20058;-81
2021/07/10 05:45:54;;;;;;;3.60;1.00;;;;;;;24.00;50.66;100817.66;4981194;28;20046;-82
2021/07/10 05:48:39;;;;;;;3.58;1.23;;;;;;;24.00;50.71;100820.44;4978173;28;20464;-82
2021/07/10 05:51:24;;;;;;;3.20;0.77;;;;;;;24.01;50.21;100819.25;4970351;28;20591;-80
2021/07/10 05:54:10;;;;;;;5.63;1.20;;;;;;;24.02;50.23;100824.41;4978581;28;20413;-81
2021/07/10 05:56:55;;;;;;;6.30;2.70;;;;;;;24.02;50.25;100821.63;4971483;28;20420;-80
2021/07/10 05:59:40;;;;;;;1.42;0.77;;;;;;;24.04;50.50;100822.00;4974902;28;20057;-80
2021/07/10 06:02:24;;;;;;;5.13;1.05;;;;;;;24.05;50.18;100822.78;4978412;28;20424;-80
2021/07/10 06:05:09;;;;;;;;;;;;;;;24.09;50.01;100824.34;4975930;28;20046;-80
2021/07/10 06:07:54;;;;;;;3.20;0.52;;;;;;;24.10;50.18;100825.16;4971095;28;19917;-79
2021/07/10 06:10:40;;;;;;;1.73;0.60;;;;;;;24.10;50.01;100823.16;4975337;28;20061;-79
2021/07/10 06:13:25;;;;;;;2.08;0.85;;;;;;;24.13;50.22;100824.31;4975906;28;20046;-80
2021/07/10 06:16:10;;;;;;;3.15;1.13;;;;;;;24.14;49.98;100825.91;4971077;28;20527;-80
2021/07/10 06:18:55;;;;;;;2.50;0.85;;;;;;;24.16;49.96;100826.31;4974469;28;20054;-80
2021/07/10 06:21:39;;;;;;;2.10;0.73;;;;;;;24.20;49.89;100829.91;4977782;28;20053;-80
2021/07/10 06:24:25;;;;;;;;;;;;;;;24.22;49.69;100836.66;4974545;28;20507;-80
2021/07/10 06:27:09;;;;;;;;;;;;;;;24.25;49.52;100838.59;4974969;28;19914;-80
2021/07/10 06:29:54;;;;;;;5.30;1.52;;;;;;;24.25;49.44;100837.81;4977530;28;20392;-80
2021/07/10 06:32:38;;;;;;;;;;;;;;;24.30;49.27;100840.16;4972609;28;20049;-80
2021/07/10 06:35:23;;;;;;;3.73;1.63;;;;;;;24.31;49.16;100840.97;4973069;28;20299;-80
2021/07/10 06:38:08;;;;;;;5.80;2.78;;;;;;;24.33;48.99;100839.34;4976351;28;20046;-81
2021/07/10 06:40:52;;;;;;;;;;;;;;;24.37;48.93;100839.34;4969526;28;20127;-81
2021/07/10 06:43:37;;;;;;;6.00;1.10;;;;;;;24.41;48.88;100848.44;4976010;28;19914;-81
2021/07/10 06:46:21;;;;;;;2.70;1.05;;;;;;;24.43;48.75;100848.84;4979202;28;20042;-80
2021/07/10 06:49:07;;;;;;;4.65;1.23;;;;;;;24.45;49.06;100850.00;4979741;28;20531;-81
2021/07/10 06:51:52;;;;;;;17.27;2.22;;;;;;;24.49;49.22;100841.63;4976378;28;20042;-81
2021/07/10 06:54:36;;;;;;;;;;;;;;;24.54;49.41;100844.78;4979081;28;20517;-80
2021/07/10 06:57:20;;;;;;;6.88;1.85;;;;;;;24.55;49.38;100849.16;4971559;28;20389;-80
2021/07/10 07:00:11;;;;;;;3.80;2.00;;;;;;;24.59;49.68;100843.56;4977603;28;20062;-81
2021/07/10 07:02:56;;;;;;;4.35;1.30;;;;;;;24.62;49.48;100846.34;4979650;28;20043;-81
2021/07/10 07:05:41;;;;;;;2.72;0.95;;;;;;;24.65;49.33;100844.72;4979396;28;20058;-82
2021/07/10 07:08:26;;;;;;;5.15;1.67;;;;;;;24.70;49.42;100847.84;4978631;28;20058;-81
2021/07/10 07:11:11;;;;;;;2.55;1.15;;;;;;;24.78;49.66;100847.81;4976532;28;20066;-81
2021/07/10 07:13:56;;;;;;;3.85;1.23;;;;;;;24.78;49.27;100843.03;4976199;28;20050;-81
2021/07/10 07:16:41;;;;;;;4.15;1.55;;;;;;;24.82;49.52;100840.22;4975400;28;20057;-83
2021/07/10 07:19:26;;;;;;;4.03;1.52;;;;;;;24.85;49.46;100840.19;4983442;28;20053;-81
2021/07/10 07:22:11;;;;;;;3.30;2.00;;;;;;;24.90;49.62;100845.34;4979170;28;20054;-81
2021/07/10 07:24:55;;;;;;;3.65;2.08;;;;;;;24.95;49.99;100844.13;4974040;28;20046;-80
2021/07/10 07:27:40;;;;;;;;;;;;;;;25.00;50.00;100843.69;4974688;28;20122;-81
2021/07/10 07:30:25;;;;;;;4.47;2.22;;;;;;;25.05;50.31;100848.81;4973874;28;20395;-80
2021/07/10 07:33:11;;;;;;;6.30;2.05;;;;;;;25.04;50.38;100830.53;4978046;28;20038;-81
2021/07/10 07:35:56;;;;;;;7.22;2.05;;;;;;;25.13;50.51;100844.78;4972781;28;20045;-80
2021/07/10 07:38:42;;;;;;;4.40;2.13;;;;;;;25.17;50.46;100847.50;4972263;28;20062;-80
2021/07/10 07:41:27;;;;;;;4.38;2.25;;;;;;;25.23;50.51;100846.66;4978619;28;20046;-80
2021/07/10 07:44:12;;;;;;;5.30;2.25;;;;;;;25.26;50.50;100845.84;4975760;28;20066;-80
2021/07/10 07:46:56;;;;;;;6.97;2.60;;;;;;;25.30;50.35;100843.81;4973121;28;20563;-80
2021/07/10 07:49:42;;;;;;;8.15;2.85;;;;;;;25.36;50.16;100844.94;4977722;28;20050;-79
2021/07/10 07:52:27;;;;;;;4.20;2.30;;;;;;;25.41;50.21;100849.25;4976606;28;20065;-81
2021/07/10 07:55:13;;;;;;;5.15;3.30;;;;;;;25.45;50.21;100848.03;4970073;28;20416;-80
2021/07/10 07:57:58;;;;;;;4.53;2.33;;;;;;;25.49;50.66;100848.81;4977624;28;20405;-81
2021/07/10 08:00:43;;;;;;;9.05;3.35;;;;;;;25.54;50.54;100845.56;4976461;28;20069;-80
2021/07/10 08:03:29;;;;;;;3.40;2.50;;;;;;;25.61;50.44;100835.56;4975098;28;20043;-81
2021/07/10 08:06:15;;;;;;;5.90;2.50;;;;;;;25.67;50.43;100839.47;4974333;28;20575;-80
2021/07/10 08:08:59;;;;;;;3.75;1.80;;;;;;;25.71;50.13;100835.44;4976123;28;20050;-81
2021/07/10 08:11:47;;;;;;;4.38;3.00;;;;;;;25.74;49.90;100833.84;4974676;28;20057;-80
2021/07/10 08:14:32;;;;;;;8.13;2.53;;;;;;;25.81;49.85;100834.53;4974776;28;20804;-80
2021/07/10 08:17:16;;;;;;;3.45;1.88;;;;;;;25.85;49.82;100831.72;4971445;28;20413;-81
2021/07/10 08:20:02;;;;;;;4.80;2.55;;;;;;;25.90;49.44;100829.25;4977974;28;20046;-81
2021/07/10 08:22:49;;;;;;;5.93;2.55;;;;;;;25.98;49.49;100832.75;4990445;28;20049;-81
2021/07/10 08:25:34;;;;;;;3.35;1.70;;;;;;;26.02;49.28;100829.91;4993000;28;20045;-81
2021/07/10 08:28:18;;;;;;;6.50;2.63;;;;;;;26.06;49.44;100837.00;4989987;28;21589;-79
2021/07/10 08:31:04;;;;;;;3.13;1.60;;;;;;;26.11;48.92;100828.19;4988103;28;20054;-82
2021/07/10 08:33:48;;;;;;;5.70;1.70;;;;;;;26.19;48.82;100828.88;4987670;28;20711;-81
2021/07/10 08:36:34;;;;;;;3.65;2.25;;;;;;;26.23;47.96;100832.44;4982471;28;20041;-81
2021/07/10 08:39:18;;;;;;;6.00;1.48;;;;;;;26.26;48.12;100818.44;4976937;28;20417;-81
2021/07/10 08:42:04;;;;;;;2.50;1.48;;;;;;;26.33;48.12;100826.72;4974700;28;20046;-82
2021/07/10 08:44:51;;;;;;;4.53;1.45;;;;;;;26.39;48.23;100832.63;4971479;28;20053;-82
2021/07/10 08:47:39;;;;;;;2.83;1.25;;;;;;;26.45;47.80;100836.53;4974498;28;20054;-82
2021/07/10 08:50:24;;;;;;;3.33;1.55;;;;;;;26.50;47.39;100830.47;4972579;28;20054;-82
2021/07/10 08:53:09;;;;;;;4.25;1.75;;;;;;;26.51;46.43;100817.31;4975836;28;20042;-81
2021/07/10 08:55:55;;;;;;;2.38;1.60;;;;;;;26.58;46.13;100822.75;4980170;28;20041;-82
2021/07/10 08:58:40;;;;;;;1.25;0.80;;;;;;;26.65;45.87;100817.09;4975750;28;20520;-83
2021/07/10 09:01:26;;;;;;;3.30;1.88;;;;;;;26.69;45.74;100821.41;4977828;28;20050;-82
2021/07/10 09:04:11;;;;;;;5.35;1.20;;;;;;;26.74;45.37;100822.91;4983688;28;20062;-82
2021/07/10 09:06:55;;;;;;;5.53;1.35;;;;;;;26.77;45.41;100819.28;4975366;28;20550;-82
2021/07/10 09:09:44;;;;;;;1.80;1.10;;;;;;;26.83;45.54;100817.56;4983635;28;20053;-82
2021/07/10 09:12:30;;;;;;;2.95;1.10;;;;;;;26.89;45.47;100821.50;4979976;28;20081;-83
2021/07/10 09:15:17;;;;;;;1.02;0.75;;;;;;;26.92;45.56;100826.22;4978042;28;20053;-82
2021/07/10 09:18:08;;;;;;;4.35;0.98;;;;;;;26.98;45.01;100827.31;4975939;28;20046;-82
2021/07/10 09:20:55;;;;;;;2.80;1.40;;;;;;;27.01;44.24;100828.50;4975546;28;20476;-83
2021/07/10 09:23:44;;;;;;;7.82;2.17;;;;;;;27.12;44.04;100826.31;4977645;28;20049;-81
2021/07/10 09:26:30;;;;;;;2.65;1.17;;;;;;;27.14;43.61;100832.25;4974934;28;20058;-82
2021/07/10 09:29:16;;;;;;;;;;;;;;;27.18;43.92;100825.38;4978951;28;20057;-82
2021/07/10 09:32:08;;;;;;;2.45;1.40;;;;;;;27.20;43.99;100825.75;4970822;28;19922;-82
2021/07/10 09:34:56;;;;;;;2.42;1.33;;;;;;;27.24;43.21;100825.69;4974273;28;20111;-83
2021/07/10 09:37:52;;;;;;;2.90;1.17;;;;;;;27.29;43.61;100821.59;4978756;28;20065;-83
2021/07/10 09:40:37;;;;;;;3.60;1.50;;;;;;;27.34;43.68;100821.91;4974486;28;20163;-82
2021/07/10 09:43:24;;;;;;;2.80;1.50;;;;;;;27.41;43.12;100818.19;4970085;28;20050;-82
2021/07/10 09:46:09;;;;;;;3.08;1.20;;;;;;;27.42;43.21;100805.81;4971183;28;20049;-83
2021/07/10 09:48:54;;;;;;;3.55;1.27;;;;;;;27.49;43.11;100811.25;4975846;28;20543;-82
2021/07/10 09:51:40;;;;;;;7.30;1.60;;;;;;;27.49;42.95;100794.47;4974877;28;20869;-82
2021/07/10 09:54:31;;;;;;;5.55;1.42;;;;;;;27.55;42.58;100801.97;4971975;28;20050;-81
2021/07/10 09:57:18;;;;;;;2.58;1.13;;;;;;;27.62;42.29;100798.25;4969905;28;20062;-81
2021/07/10 10:00:12;;;;;;;5.65;2.70;;;;;;;27.69;42.43;100800.91;4978074;28;20682;-80
2021/07/10 10:02:58;;;;;;;3.40;1.75;;;;;;;27.73;41.57;100793.25;4982667;28;20555;-81
2021/07/10 10:05:43;;;;;;;3.35;1.27;;;;;;;27.80;41.65;100798.69;4978774;28;20058;-81
2021/07/10 10:08:34;;;;;;;4.15;1.33;;;;;;;27.85;41.52;100795.38;4988743;28;20050;-81
2021/07/10 10:11:19;;;;;;;3.50;0.80;;;;;;;27.88;42.04;100800.13;4978698;28;20049;-82
2021/07/10 10:14:08;;;;;;;2.70;0.98;;;;;;;27.92;41.63;100797.25;4971594;28;20054;-83
2021/07/10 10:16:53;;;;;;;4.85;1.20;;;;;;;27.98;41.96;100801.91;4976657;28;20061;-84
2021/07/10 10:19:38;;;;;;;2.30;1.45;;;;;;;28.03;41.79;100798.59;4979457;28;20536;-83
2021/07/10 10:22:24;;;;;;;2.40;1.20;;;;;;;28.09;41.68;100796.03;4978812;28;20405;-82
2021/07/10 10:25:09;;;;;;;2.53;0.85;;;;;;;28.13;42.34;100796.81;4976526;28;20058;-82
2021/07/10 10:27:56;;;;;;;4.20;1.30;;;;;;;28.17;41.69;100796.72;4982075;28;20520;-82
2021/07/10 10:30:41;;;;;;;3.92;1.20;;;;;;;28.26;41.88;100794.13;4979455;28;20445;-83
2021/07/10 10:33:27;;;;;;;2.65;1.20;;;;;;;28.26;41.93;100788.53;4980340;28;20416;-83
2021/07/10 10:36:12;;;;;;;2.88;1.10;;;;;;;28.33;41.44;100793.97;4977190;28;20042;-83
2021/07/10 10:38:57;;;;;;;2.78;1.13;;;;;;;28.40;41.21;100788.19;4973823;28;20511;-82
2021/07/10 10:41:45;;;;;;;6.50;1.83;;;;;;;28.49;40.04;100785.59;4975235;28;20058;-81
2021/07/10 10:44:42;;;;;;;4.30;1.60;;;;;;;28.52;40.21;100784.72;4975961;28;20045;-81
2021/07/10 10:47:39;;;;;;;1.05;0.95;;;;;;;28.58;40.42;100785.75;4968549;28;20050;-82
2021/07/10 10:50:30;;;;;;;1.35;0.93;;;;;;;28.62;40.31;100783.66;4975642;28;20046;-82
2021/07/10 10:53:21;;;;;;;1.77;0.85;;;;;;;28.68;40.67;100778.34;4975102;28;20069;-82
2021/07/10 10:56:06;;;;;;;2.88;0.70;;;;;;;28.73;40.57;100777.84;4974574;28;20519;-82
2021/07/10 10:58:51;;;;;;;2.20;1.00;;;;;;;28.75;40.61;100776.16;4980851;28;20057;-81
2021/07/10 11:01:36;;;;;;;2.28;1.10;;;;;;;28.75;40.54;100781.00;4977678;28;20054;-82
2021/07/10 11:04:45;;;;;;;2.25;1.20;;;;;;;28.82;40.05;100780.81;4978412;28;20050;-81
2021/07/10 11:07:33;;;;;;;3.58;1.05;;;;;;;28.91;38.83;100775.34;4974269;28;20046;-82
2021/07/10 11:10:24;;;;;;;1.60;1.17;;;;;;;28.94;39.34;100768.09;4975916;28;20053;-82
2021/07/10 11:13:31;;;;;;;1.77;1.20;;;;;;;28.97;38.82;100767.22;4973009;28;20042;-82
2021/07/10 11:16:20;;;;;;;3.63;1.27;;;;;;;29.03;38.73;100768.25;4971205;28;20038;-82
2021/07/10 11:19:07;;;;;;;1.73;0.90;;;;;;;29.03;38.51;100757.06;4981644;28;20050;-81
2021/07/10 11:21:52;;;;;;;1.45;1.08;;;;;;;29.06;38.65;100758.97;4975963;28;20516;-83
2021/07/10 11:24:45;;;;;;;2.10;1.20;;;;;;;29.14;38.94;100751.97;4980761;28;20050;-81
2021/07/10 11:27:30;;;;;;;4.07;1.27;;;;;;;29.16;38.74;100755.88;4970109;28;20038;-82
2021/07/10 11:30:17;;;;;;;1.90;1.00;;;;;;;29.19;38.73;100743.81;4975770;28;20062;-82
2021/07/10 11:33:02;;;;;;;1.67;1.00;;;;;;;29.22;38.70;100748.50;4980110;28;20397;-82
2021/07/10 11:35:47;;;;;;;2.72;0.90;;;;;;;29.29;38.33;100750.34;4977408;28;20070;-83
2021/07/10 11:38:41;;;;;;;2.35;0.90;;;;;;;29.34;38.48;100747.03;4988593;28;20054;-83
2021/07/10 11:41:32;;;;;;;1.08;0.80;;;;;;;29.38;37.66;100746.91;4986293;28;20413;-84
2021/07/10 11:44:20;;;;;;;1.52;0.85;;;;;;;29.48;36.87;100743.03;4985557;28;20107;-79
2021/07/10 11:47:06;;;;;;;1.40;0.93;;;;;;;29.81;35.67;100738.06;4973078;28;20046;-79
2021/07/10 11:49:52;;;;;;;1.27;1.17;;;;;;;29.95;34.72;100726.44;4978961;28;20049;-79
2021/07/10 11:52:38;;;;;;;1.20;1.00;;;;;;;30.19;34.73;100733.28;4975095;28;20081;-79
2021/07/10 11:55:24;;;;;;;2.33;1.25;;;;;;;30.31;34.43;100726.88;4978254;28;20050;-79
2021/07/10 11:58:12;;;;;;;1.73;0.90;;;;;;;30.42;32.78;100724.53;4977601;28;20061;-78
2021/07/10 12:00:58;;;;;;;2.95;0.85;;;;;;;30.52;33.41;100725.44;4974426;28;20515;-80
2021/07/10 12:03:42;;;;;;;1.58;1.00;;;;;;;30.56;32.12;100717.66;4974351;28;20053;-79
2021/07/10 12:06:27;;;;;;;2.10;0.95;;;;;;;30.65;33.29;100705.75;4975624;28;20533;-79
2021/07/10 12:09:12;;;;;;;2.45;1.08;;;;;;;30.72;32.76;100702.69;4976386;28;20061;-79
2021/07/10 12:12:01;;;;;;;5.40;1.00;;;;;;;30.76;33.04;100704.13;4972670;28;20053;-80
2021/07/10 12:14:50;;;;;;;3.17;1.10;;;;;;;30.65;31.98;100702.94;4978563;28;20053;-78
2021/07/10 12:17:43;;;;;;;2.67;1.30;;;;;;;30.65;31.66;100694.50;4975326;28;20050;-79
2021/07/10 12:20:31;;;;;;;1.85;0.82;;;;;;;30.65;33.71;100691.69;4979513;28;20428;-80
2021/07/10 12:23:20;;;;;;;3.63;0.90;;;;;;;30.68;33.48;100685.94;4978471;28;20702;-80
2021/07/10 12:26:35;;;;;;;3.70;1.08;;;;;;;30.65;32.17;100684.06;4975086;28;20046;-80
2021/07/10 12:29:20;;;;;;;1.52;0.82;;;;;;;30.65;32.55;100677.66;4967758;28;20050;-79
2021/07/10 12:32:15;;;;;;;1.58;1.00;;;;;;;30.72;31.94;100678.22;4975626;28;20058;-79
2021/07/10 12:35:00;;;;;;;1.85;0.98;;;;;;;30.74;33.01;100681.34;4978479;28;20049;-80
2021/07/10 12:37:45;;;;;;;2.85;1.10;;;;;;;30.79;34.46;100682.78;4975813;28;20058;-79
2021/07/10 12:40:29;;;;;;;2.72;0.90;;;;;;;30.78;32.83;100681.22;4974452;28;20049;-80
2021/07/10 12:43:23;;;;;;;4.82;1.02;;;;;;;30.81;33.59;100683.13;4971291;28;20053;-79
2021/07/10 12:46:08;;;;;;;1.50;1.00;;;;;;;30.86;33.13;100671.31;4975737;28;20424;-80
2021/07/10 12:49:08;;;;;;;1.30;0.82;;;;;;;30.89;33.16;100681.63;4971522;28;20041;-79
2021/07/10 12:51:54;;;;;;;5.30;1.05;;;;;;;30.86;32.77;100676.91;4974661;28;20127;-78
2021/07/10 12:54:55;;;;;;;3.22;1.17;;;;;;;30.91;32.51;100676.34;4974830;28;20429;-78
2021/07/10 12:57:41;;;;;;;1.25;0.90;;;;;;;30.92;32.80;100675.09;4972921;28;20054;-79